sensor_id;sensor_type;location;lat;lon;timestamp;pressure;altitude;pressure_sealevel;temperature;humidity
9335;BME280;4706;41.844;26.082;2023-06-22T00:00:42;100912.19;;;26.04;67.99
9335;BME280;4706;41.844;26.082;2023-06-22T00:03:09;100906.56;;;26.00;68.14
9335;BME280;4706;41.844;26.082;2023-06-22T00:05:34;100912.56;;;25.99;68.25
9335;BME280;4706;41.844;26.082;2023-06-22T00:08:02;100916.53;;;25.80;69.20
9335;BME280;4706;41.844;26.082;2023-06-22T00:10:29;100904.81;;;25.74;69.12
9335;BME280;4706;41.844;26.082;2023-06-22T00:12:54;100918.88;;;25.71;69.83
9335;BME280;4706;41.844;26.082;2023-06-22T00:15:20;100920.13;;;25.73;69.36
9335;BME280;4706;41.844;26.082;2023-06-22T00:17:45;100924.88;;;25.55;70.54
9335;BME280;4706;41.844;26.082;2023-06-22T00:20:11;100928.06;;;25.57;70.10
9335;BME280;4706;41.844;26.082;2023-06-22T00:22:37;100936.09;;;25.51;70.07
9335;BME280;4706;41.844;26.082;2023-06-22T00:25:06;100944.47;;;25.37;69.71
9335;BME280;4706;41.844;26.082;2023-06-22T00:27:32;100948.47;;;25.32;69.55
9335;BME280;4706;41.844;26.082;2023-06-22T00:29:57;100955.31;;;25.31;69.59
9335;BME280;4706;41.844;26.082;2023-06-22T00:32:23;100955.22;;;25.17;70.01
9335;BME280;4706;41.844;26.082;2023-06-22T00:34:49;100958.84;;;25.21;69.98
9335;BME280;4706;41.844;26.082;2023-06-22T00:37:15;100960.47;;;25.22;70.22
9335;BME280;4706;41.844;26.082;2023-06-22T00:39:42;100964.84;;;25.19;70.94
9335;BME280;4706;41.844;26.082;2023-06-22T00:42:08;100959.16;;;25.12;70.80
9335;BME280;4706;41.844;26.082;2023-06-22T00:44:35;100961.66;;;25.17;71.32
9335;BME280;4706;41.844;26.082;2023-06-22T00:47:00;100949.19;;;25.18;71.36
9335;BME280;4706;41.844;26.082;2023-06-22T00:49:26;100955.22;;;25.21;71.38
9335;BME280;4706;41.844;26.082;2023-06-22T00:51:52;100943.97;;;25.21;71.19
9335;BME280;4706;41.844;26.082;2023-06-22T00:54:18;100944.00;;;25.24;71.00
9335;BME280;4706;41.844;26.082;2023-06-22T00:56:51;100956.06;;;25.25;71.10
9335;BME280;4706;41.844;26.082;2023-06-22T00:59:20;100956.41;;;25.19;71.27
9335;BME280;4706;41.844;26.082;2023-06-22T01:01:46;100955.22;;;25.21;71.28
9335;BME280;4706;41.844;26.082;2023-06-22T01:04:11;100949.94;;;25.15;71.83
9335;BME280;4706;41.844;26.082;2023-06-22T01:12:52;100937.38;;;25.02;72.19
9335;BME280;4706;41.844;26.082;2023-06-22T01:15:37;100952.28;;;25.06;71.90
9335;BME280;4706;41.844;26.082;2023-06-22T01:18:05;100949.84;;;25.05;71.96
9335;BME280;4706;41.844;26.082;2023-06-22T01:20:34;100950.16;;;24.92;72.29
9335;BME280;4706;41.844;26.082;2023-06-22T01:26:36;100958.22;;;24.94;72.67
9335;BME280;4706;41.844;26.082;2023-06-22T01:28:52;100954.97;;;24.92;72.83
9335;BME280;4706;41.844;26.082;2023-06-22T01:31:20;100955.81;;;24.96;72.52
9335;BME280;4706;41.844;26.082;2023-06-22T01:33:51;100957.03;;;24.95;72.72
9335;BME280;4706;41.844;26.082;2023-06-22T01:36:19;100955.81;;;24.96;72.76
9335;BME280;4706;41.844;26.082;2023-06-22T01:38:46;100942.06;;;24.84;72.80
9335;BME280;4706;41.844;26.082;2023-06-22T01:41:13;100950.53;;;24.87;72.64
9335;BME280;4706;41.844;26.082;2023-06-22T01:43:39;100938.41;;;24.80;72.54
9335;BME280;4706;41.844;26.082;2023-06-22T01:46:05;100938.88;;;24.89;72.47
9335;BME280;4706;41.844;26.082;2023-06-22T01:48:31;100932.34;;;24.78;72.71
9335;BME280;4706;41.844;26.082;2023-06-22T01:50:57;100935.19;;;24.81;72.57
9335;BME280;4706;41.844;26.082;2023-06-22T01:53:23;100934.00;;;24.86;72.18
9335;BME280;4706;41.844;26.082;2023-06-22T01:55:49;100928.75;;;24.81;72.52
9335;BME280;4706;41.844;26.082;2023-06-22T01:58:15;100926.25;;;24.68;72.73
9335;BME280;4706;41.844;26.082;2023-06-22T02:00:45;100932.72;;;24.73;72.59
9335;BME280;4706;41.844;26.082;2023-06-22T02:03:19;100926.59;;;24.60;73.11
9335;BME280;4706;41.844;26.082;2023-06-22T02:06:06;100939.50;;;24.68;72.96
9335;BME280;4706;41.844;26.082;2023-06-22T02:08:38;100940.31;;;24.68;73.07
9335;BME280;4706;41.844;26.082;2023-06-22T02:11:06;100946.34;;;24.70;72.98
9335;BME280;4706;41.844;26.082;2023-06-22T02:13:32;100941.03;;;24.58;72.86
9335;BME280;4706;41.844;26.082;2023-06-22T02:15:59;100945.47;;;24.63;73.00
9335;BME280;4706;41.844;26.082;2023-06-22T02:18:25;100939.84;;;24.63;72.69
9335;BME280;4706;41.844;26.082;2023-06-22T02:20:51;100937.81;;;24.56;73.11
9335;BME280;4706;41.844;26.082;2023-06-22T02:23:16;100939.41;;;24.57;73.28
9335;BME280;4706;41.844;26.082;2023-06-22T02:25:42;100945.38;;;24.52;73.44
9335;BME280;4706;41.844;26.082;2023-06-22T02:28:09;100942.63;;;24.59;73.30
9335;BME280;4706;41.844;26.082;2023-06-22T02:30:35;100951.03;;;24.56;73.07
9335;BME280;4706;41.844;26.082;2023-06-22T02:33:01;100957.34;;;24.42;73.50
9335;BME280;4706;41.844;26.082;2023-06-22T02:35:27;100954.94;;;24.44;73.64
9335;BME280;4706;41.844;26.082;2023-06-22T02:37:58;100962.56;;;24.43;73.46
9335;BME280;4706;41.844;26.082;2023-06-22T02:40:25;100959.66;;;24.36;73.94
9335;BME280;4706;41.844;26.082;2023-06-22T02:42:50;100968.16;;;24.40;73.26
9335;BME280;4706;41.844;26.082;2023-06-22T02:45:16;100970.97;;;24.40;72.98
9335;BME280;4706;41.844;26.082;2023-06-22T02:47:41;100965.66;;;24.35;73.39
9335;BME280;4706;41.844;26.082;2023-06-22T02:50:07;100976.53;;;24.36;73.30
9335;BME280;4706;41.844;26.082;2023-06-22T02:52:32;100970.81;;;24.29;73.42
9335;BME280;4706;41.844;26.082;2023-06-22T02:54:59;100988.94;;;24.32;73.69
9335;BME280;4706;41.844;26.082;2023-06-22T02:57:25;100983.25;;;24.28;73.66
9335;BME280;4706;41.844;26.082;2023-06-22T02:59:50;100984.41;;;24.23;73.84
9335;BME280;4706;41.844;26.082;2023-06-22T03:02:16;100977.16;;;24.19;74.10
9335;BME280;4706;41.844;26.082;2023-06-22T03:04:41;100955.25;;;24.02;74.50
9335;BME280;4706;41.844;26.082;2023-06-22T03:07:08;100968.72;;;24.19;74.40
9335;BME280;4706;41.844;26.082;2023-06-22T03:09:33;100980.00;;;24.22;74.82
9335;BME280;4706;41.844;26.082;2023-06-22T03:11:59;100966.66;;;24.16;74.37
9335;BME280;4706;41.844;26.082;2023-06-22T03:14:25;100986.44;;;24.23;74.48
9335;BME280;4706;41.844;26.082;2023-06-22T03:16:51;100981.97;;;24.18;74.52
9335;BME280;4706;41.844;26.082;2023-06-22T03:19:17;100992.84;;;24.23;74.58
9335;BME280;4706;41.844;26.082;2023-06-22T03:21:42;100985.63;;;24.22;74.74
9335;BME280;4706;41.844;26.082;2023-06-22T03:24:08;100989.72;;;24.32;74.77
9335;BME280;4706;41.844;26.082;2023-06-22T03:26:34;101000.63;;;24.34;74.48
9335;BME280;4706;41.844;26.082;2023-06-22T03:28:59;100999.41;;;24.35;74.43
9335;BME280;4706;41.844;26.082;2023-06-22T03:31:25;101005.06;;;24.38;74.51
9335;BME280;4706;41.844;26.082;2023-06-22T03:33:50;100992.53;;;24.32;74.61
9335;BME280;4706;41.844;26.082;2023-06-22T03:36:18;101003.03;;;24.35;74.58
9335;BME280;4706;41.844;26.082;2023-06-22T03:38:49;101009.09;;;24.37;74.67
9335;BME280;4706;41.844;26.082;2023-06-22T03:41:15;101009.16;;;24.44;74.62
9335;BME280;4706;41.844;26.082;2023-06-22T03:43:41;101004.38;;;24.45;74.44
9335;BME280;4706;41.844;26.082;2023-06-22T03:46:06;101006.44;;;24.52;74.21
9335;BME280;4706;41.844;26.082;2023-06-22T03:48:32;101006.91;;;24.57;73.84
9335;BME280;4706;41.844;26.082;2023-06-22T03:50:59;101007.34;;;24.63;73.65
9335;BME280;4706;41.844;26.082;2023-06-22T03:53:25;101014.34;;;24.76;73.22
9335;BME280;4706;41.844;26.082;2023-06-22T03:55:51;101013.22;;;24.88;73.12
9335;BME280;4706;41.844;26.082;2023-06-22T03:58:20;101009.25;;;24.92;72.26
9335;BME280;4706;41.844;26.082;2023-06-22T04:00:47;101000.91;;;25.03;71.84
9335;BME280;4706;41.844;26.082;2023-06-22T04:03:16;101003.34;;;25.08;72.00
9335;BME280;4706;41.844;26.082;2023-06-22T04:05:44;100995.78;;;25.16;71.67
9335;BME280;4706;41.844;26.082;2023-06-22T04:08:10;101015.25;;;25.32;71.36
9335;BME280;4706;41.844;26.082;2023-06-22T04:10:35;101012.84;;;25.37;70.69
9335;BME280;4706;41.844;26.082;2023-06-22T04:13:01;101014.16;;;25.47;70.63
9335;BME280;4706;41.844;26.082;2023-06-22T04:15:27;101004.06;;;25.46;70.50
9335;BME280;4706;41.844;26.082;2023-06-22T04:17:54;101009.75;;;25.57;70.19
9335;BME280;4706;41.844;26.082;2023-06-22T04:20:20;101015.91;;;25.70;70.13
9335;BME280;4706;41.844;26.082;2023-06-22T04:22:46;101005.47;;;25.77;70.02
9335;BME280;4706;41.844;26.082;2023-06-22T04:25:11;101015.22;;;25.90;69.87
9335;BME280;4706;41.844;26.082;2023-06-22T04:27:37;101018.88;;;26.02;69.28
9335;BME280;4706;41.844;26.082;2023-06-22T04:30:08;101016.91;;;26.09;68.79
9335;BME280;4706;41.844;26.082;2023-06-22T04:32:34;101010.94;;;26.18;68.22
9335;BME280;4706;41.844;26.082;2023-06-22T04:35:03;101025.88;;;26.33;68.18
9335;BME280;4706;41.844;26.082;2023-06-22T04:37:30;101020.66;;;26.38;67.79
9335;BME280;4706;41.844;26.082;2023-06-22T04:39:56;101021.09;;;26.48;67.86
9335;BME280;4706;41.844;26.082;2023-06-22T04:42:21;101025.16;;;26.57;67.84
9335;BME280;4706;41.844;26.082;2023-06-22T04:44:47;101035.69;;;26.71;67.55
9335;BME280;4706;41.844;26.082;2023-06-22T04:47:12;101026.41;;;26.88;66.68
9335;BME280;4706;41.844;26.082;2023-06-22T04:49:38;101025.63;;;27.02;66.41
9335;BME280;4706;41.844;26.082;2023-06-22T04:52:07;101029.25;;;27.03;66.70
9335;BME280;4706;41.844;26.082;2023-06-22T04:54:33;101032.50;;;27.08;66.57
9335;BME280;4706;41.844;26.082;2023-06-22T04:57:03;101031.69;;;27.15;66.05
9335;BME280;4706;41.844;26.082;2023-06-22T04:59:31;101028.88;;;27.36;65.48
9335;BME280;4706;41.844;26.082;2023-06-22T05:02:01;101030.47;;;27.52;65.41
9335;BME280;4706;41.844;26.082;2023-06-22T05:04:28;101036.50;;;27.65;64.94
9335;BME280;4706;41.844;26.082;2023-06-22T05:06:57;101038.13;;;27.80;64.50
9335;BME280;4706;41.844;26.082;2023-06-22T05:09:23;101022.31;;;27.93;63.67
9335;BME280;4706;41.844;26.082;2023-06-22T05:11:50;101017.06;;;27.99;63.41
9335;BME280;4706;41.844;26.082;2023-06-22T05:14:15;101027.47;;;28.13;62.97
9335;BME280;4706;41.844;26.082;2023-06-22T05:16:42;101031.06;;;28.27;62.58
9335;BME280;4706;41.844;26.082;2023-06-22T05:19:08;101021.31;;;28.43;62.10
9335;BME280;4706;41.844;26.082;2023-06-22T05:21:33;101032.09;;;28.62;61.47
9335;BME280;4706;41.844;26.082;2023-06-22T05:23:59;101026.38;;;28.73;60.75
9335;BME280;4706;41.844;26.082;2023-06-22T05:26:27;101027.56;;;28.79;60.77
9335;BME280;4706;41.844;26.082;2023-06-22T05:28:53;101026.72;;;28.86;60.92
9335;BME280;4706;41.844;26.082;2023-06-22T05:31:19;101018.16;;;28.93;60.91
9335;BME280;4706;41.844;26.082;2023-06-22T05:33:46;101015.66;;;29.06;60.19
9335;BME280;4706;41.844;26.082;2023-06-22T05:36:12;101019.13;;;29.24;59.42
9335;BME280;4706;41.844;26.082;2023-06-22T05:38:39;101023.44;;;29.39;58.25
9335;BME280;4706;41.844;26.082;2023-06-22T05:41:04;101039.72;;;29.32;58.66
9335;BME280;4706;41.844;26.082;2023-06-22T05:43:30;101027.56;;;29.31;58.74
9335;BME280;4706;41.844;26.082;2023-06-22T05:45:56;101032.25;;;29.48;58.28
9335;BME280;4706;41.844;26.082;2023-06-22T05:48:22;101021.56;;;29.67;57.92
9335;BME280;4706;41.844;26.082;2023-06-22T05:50:48;101027.56;;;29.76;57.42
9335;BME280;4706;41.844;26.082;2023-06-22T05:53:14;101016.53;;;29.82;57.06
9335;BME280;4706;41.844;26.082;2023-06-22T05:55:39;101028.56;;;29.93;56.62
9335;BME280;4706;41.844;26.082;2023-06-22T05:58:05;101033.91;;;29.87;56.75
9335;BME280;4706;41.844;26.082;2023-06-22T06:00:31;101027.47;;;29.83;57.09
9335;BME280;4706;41.844;26.082;2023-06-22T06:02:57;101028.00;;;29.71;58.21
9335;BME280;4706;41.844;26.082;2023-06-22T06:05:28;101029.44;;;29.86;57.95
9335;BME280;4706;41.844;26.082;2023-06-22T06:07:54;101023.38;;;29.88;58.17
9335;BME280;4706;41.844;26.082;2023-06-22T06:10:20;101028.41;;;29.73;58.32
9335;BME280;4706;41.844;26.082;2023-06-22T06:12:45;101029.53;;;29.38;59.75
9335;BME280;4706;41.844;26.082;2023-06-22T06:15:10;101030.22;;;29.08;61.40
9335;BME280;4706;41.844;26.082;2023-06-22T06:17:45;101029.97;;;28.77;62.49
9335;BME280;4706;41.844;26.082;2023-06-22T06:20:10;101034.78;;;28.84;62.59
9335;BME280;4706;41.844;26.082;2023-06-22T06:22:37;101034.44;;;28.78;62.67
9335;BME280;4706;41.844;26.082;2023-06-22T06:25:03;101045.38;;;28.76;62.86
9335;BME280;4706;41.844;26.082;2023-06-22T06:27:29;101038.94;;;28.68;63.45
9335;BME280;4706;41.844;26.082;2023-06-22T06:29:55;101038.94;;;28.68;63.90
9335;BME280;4706;41.844;26.082;2023-06-22T06:32:21;101036.00;;;28.86;63.07
9335;BME280;4706;41.844;26.082;2023-06-22T06:34:46;101035.84;;;29.11;62.73
9335;BME280;4706;41.844;26.082;2023-06-22T06:37:12;101024.19;;;29.02;62.28
9335;BME280;4706;41.844;26.082;2023-06-22T06:39:37;101020.50;;;29.09;62.23
9335;BME280;4706;41.844;26.082;2023-06-22T06:42:05;101027.44;;;29.00;62.80
9335;BME280;4706;41.844;26.082;2023-06-22T06:44:30;101031.19;;;28.79;63.25
9335;BME280;4706;41.844;26.082;2023-06-22T06:46:56;101024.31;;;28.77;63.62
9335;BME280;4706;41.844;26.082;2023-06-22T06:49:22;101031.22;;;28.72;63.81
9335;BME280;4706;41.844;26.082;2023-06-22T06:51:48;101031.63;;;28.74;63.34
9335;BME280;4706;41.844;26.082;2023-06-22T06:54:13;101025.22;;;28.67;63.54
9335;BME280;4706;41.844;26.082;2023-06-22T06:56:42;101033.28;;;28.68;63.17
9335;BME280;4706;41.844;26.082;2023-06-22T06:59:17;101033.66;;;28.74;62.52
9335;BME280;4706;41.844;26.082;2023-06-22T07:01:43;101035.66;;;28.77;62.67
9335;BME280;4706;41.844;26.082;2023-06-22T07:04:10;101031.97;;;28.84;63.12
9335;BME280;4706;41.844;26.082;2023-06-22T07:06:44;101021.50;;;28.73;63.50
9335;BME280;4706;41.844;26.082;2023-06-22T07:09:10;101032.03;;;28.73;63.68
9335;BME280;4706;41.844;26.082;2023-06-22T07:11:35;101026.78;;;28.75;64.11
9335;BME280;4706;41.844;26.082;2023-06-22T07:14:01;101019.75;;;29.01;64.16
9335;BME280;4706;41.844;26.082;2023-06-22T07:16:27;101015.38;;;29.38;63.24
9335;BME280;4706;41.844;26.082;2023-06-22T07:18:54;101013.34;;;29.80;61.83
9335;BME280;4706;41.844;26.082;2023-06-22T07:21:19;101014.28;;;30.00;60.50
9335;BME280;4706;41.844;26.082;2023-06-22T07:23:44;101011.00;;;30.39;58.70
9335;BME280;4706;41.844;26.082;2023-06-22T07:26:10;101015.97;;;30.59;58.60
9335;BME280;4706;41.844;26.082;2023-06-22T07:28:38;101010.44;;;30.48;57.72
9335;BME280;4706;41.844;26.082;2023-06-22T07:31:06;101005.22;;;30.73;58.28
9335;BME280;4706;41.844;26.082;2023-06-22T07:33:31;101000.31;;;31.01;55.72
9335;BME280;4706;41.844;26.082;2023-06-22T07:35:57;101007.53;;;31.29;55.14
9335;BME280;4706;41.844;26.082;2023-06-22T07:38:22;100992.22;;;31.47;54.68
9335;BME280;4706;41.844;26.082;2023-06-22T07:40:48;101005.50;;;31.53;52.23
9335;BME280;4706;41.844;26.082;2023-06-22T07:43:13;100995.94;;;31.87;49.30
9335;BME280;4706;41.844;26.082;2023-06-22T07:45:39;100997.53;;;32.08;50.01
9335;BME280;4706;41.844;26.082;2023-06-22T07:48:06;100998.72;;;32.27;49.36
9335;BME280;4706;41.844;26.082;2023-06-22T07:50:32;100998.91;;;32.56;49.11
9335;BME280;4706;41.844;26.082;2023-06-22T07:52:58;101009.63;;;32.84;47.90
9335;BME280;4706;41.844;26.082;2023-06-22T07:55:23;101000.03;;;33.11;46.28
9335;BME280;4706;41.844;26.082;2023-06-22T07:57:49;101007.69;;;33.30;46.48
9335;BME280;4706;41.844;26.082;2023-06-22T08:00:17;101002.03;;;33.43;45.60
9335;BME280;4706;41.844;26.082;2023-06-22T08:02:45;100998.63;;;33.65;45.74
9335;BME280;4706;41.844;26.082;2023-06-22T08:05:11;101005.72;;;33.73;45.73
9335;BME280;4706;41.844;26.082;2023-06-22T08:07:37;101007.72;;;33.89;44.38
9335;BME280;4706;41.844;26.082;2023-06-22T08:10:04;101009.97;;;34.10;43.83
9335;BME280;4706;41.844;26.082;2023-06-22T08:12:29;101001.78;;;34.25;43.74
9335;BME280;4706;41.844;26.082;2023-06-22T08:14:55;101006.66;;;34.53;43.35
9335;BME280;4706;41.844;26.082;2023-06-22T08:17:23;101010.19;;;34.70;42.74
9335;BME280;4706;41.844;26.082;2023-06-22T08:19:49;101005.47;;;34.89;42.27
9335;BME280;4706;41.844;26.082;2023-06-22T08:22:15;101004.22;;;35.03;41.36
9335;BME280;4706;41.844;26.082;2023-06-22T08:24:41;100999.94;;;35.20;41.96
9335;BME280;4706;41.844;26.082;2023-06-22T08:27:07;101004.47;;;35.43;41.59
9335;BME280;4706;41.844;26.082;2023-06-22T08:29:34;101004.44;;;35.56;41.09
9335;BME280;4706;41.844;26.082;2023-06-22T08:31:59;101001.38;;;35.72;39.94
9335;BME280;4706;41.844;26.082;2023-06-22T08:34:25;100998.38;;;35.76;40.08
9335;BME280;4706;41.844;26.082;2023-06-22T08:36:53;100984.16;;;35.85;39.02
9335;BME280;4706;41.844;26.082;2023-06-22T08:39:19;100995.41;;;36.02;38.98
9335;BME280;4706;41.844;26.082;2023-06-22T08:41:46;100999.19;;;36.20;38.85
9335;BME280;4706;41.844;26.082;2023-06-22T08:44:11;100994.03;;;36.37;38.54
9335;BME280;4706;41.844;26.082;2023-06-22T08:46:37;100994.22;;;36.43;37.30
9335;BME280;4706;41.844;26.082;2023-06-22T08:49:04;100979.13;;;36.52;36.70
9335;BME280;4706;41.844;26.082;2023-06-22T08:51:29;100985.84;;;36.58;37.21
9335;BME280;4706;41.844;26.082;2023-06-22T08:53:55;100986.53;;;36.71;36.31
9335;BME280;4706;41.844;26.082;2023-06-22T08:56:20;100975.25;;;36.86;35.25
9335;BME280;4706;41.844;26.082;2023-06-22T08:58:46;100977.72;;;36.97;35.70
9335;BME280;4706;41.844;26.082;2023-06-22T09:01:11;100979.81;;;37.05;36.76
9335;BME280;4706;41.844;26.082;2023-06-22T09:03:37;100975.84;;;37.21;35.37
9335;BME280;4706;41.844;26.082;2023-06-22T09:06:03;100970.25;;;37.27;35.51
9335;BME280;4706;41.844;26.082;2023-06-22T09:08:28;100975.22;;;37.17;35.68
9335;BME280;4706;41.844;26.082;2023-06-22T09:10:54;100976.78;;;37.27;33.94
9335;BME280;4706;41.844;26.082;2023-06-22T09:13:19;100965.16;;;37.22;35.01
9335;BME280;4706;41.844;26.082;2023-06-22T09:15:45;100960.84;;;37.26;35.12
9335;BME280;4706;41.844;26.082;2023-06-22T09:18:11;100966.13;;;37.46;34.25
9335;BME280;4706;41.844;26.082;2023-06-22T09:20:37;100964.72;;;37.60;34.37
9335;BME280;4706;41.844;26.082;2023-06-22T09:23:03;100963.72;;;37.72;34.20
9335;BME280;4706;41.844;26.082;2023-06-22T09:25:28;100960.38;;;37.83;32.90
9335;BME280;4706;41.844;26.082;2023-06-22T09:27:54;100956.72;;;37.92;34.06
9335;BME280;4706;41.844;26.082;2023-06-22T09:30:19;100954.78;;;37.79;33.31
9335;BME280;4706;41.844;26.082;2023-06-22T09:32:45;100956.06;;;37.97;33.75
9335;BME280;4706;41.844;26.082;2023-06-22T09:35:11;100949.31;;;38.18;32.03
9335;BME280;4706;41.844;26.082;2023-06-22T09:37:39;100959.16;;;38.26;32.49
9335;BME280;4706;41.844;26.082;2023-06-22T09:40:06;100956.19;;;38.11;32.04
9335;BME280;4706;41.844;26.082;2023-06-22T09:42:34;100943.00;;;37.96;32.40
9335;BME280;4706;41.844;26.082;2023-06-22T09:44:59;100938.97;;;38.02;31.95
9335;BME280;4706;41.844;26.082;2023-06-22T09:47:29;100941.47;;;38.19;32.25
9335;BME280;4706;41.844;26.082;2023-06-22T09:49:54;100951.09;;;38.49;31.55
9335;BME280;4706;41.844;26.082;2023-06-22T09:52:21;100956.09;;;38.72;30.88
9335;BME280;4706;41.844;26.082;2023-06-22T09:54:47;100956.53;;;38.80;30.63
9335;BME280;4706;41.844;26.082;2023-06-22T09:57:13;100943.56;;;38.84;29.71
9335;BME280;4706;41.844;26.082;2023-06-22T09:59:38;100950.78;;;38.80;30.31
9335;BME280;4706;41.844;26.082;2023-06-22T10:02:08;100948.34;;;38.88;30.20
9335;BME280;4706;41.844;26.082;2023-06-22T10:04:34;100943.44;;;38.79;29.48
9335;BME280;4706;41.844;26.082;2023-06-22T10:07:00;100936.84;;;38.54;30.51
9335;BME280;4706;41.844;26.082;2023-06-22T10:09:26;100937.88;;;38.42;29.79
9335;BME280;4706;41.844;26.082;2023-06-22T10:11:51;100922.56;;;37.84;30.78
9335;BME280;4706;41.844;26.082;2023-06-22T10:14:17;100951.47;;;37.53;31.15
9335;BME280;4706;41.844;26.082;2023-06-22T10:16:42;100940.13;;;37.22;32.06
9335;BME280;4706;41.844;26.082;2023-06-22T10:19:08;100934.19;;;36.89;31.87
9335;BME280;4706;41.844;26.082;2023-06-22T10:21:33;100945.09;;;36.54;32.86
9335;BME280;4706;41.844;26.082;2023-06-22T10:24:00;100933.81;;;36.28;32.94
9335;BME280;4706;41.844;26.082;2023-06-22T10:26:32;100935.69;;;36.22;33.16
9335;BME280;4706;41.844;26.082;2023-06-22T10:28:58;100936.69;;;36.68;33.29
9335;BME280;4706;41.844;26.082;2023-06-22T10:31:24;100938.53;;;37.03;32.39
9335;BME280;4706;41.844;26.082;2023-06-22T10:33:50;100936.81;;;37.51;31.68
9335;BME280;4706;41.844;26.082;2023-06-22T10:36:15;100925.16;;;37.73;30.35
9335;BME280;4706;41.844;26.082;2023-06-22T10:38:41;100915.41;;;37.71;29.91
9335;BME280;4706;41.844;26.082;2023-06-22T10:41:06;100918.81;;;37.41;31.02
9335;BME280;4706;41.844;26.082;2023-06-22T10:43:32;100921.47;;;37.08;31.96
9335;BME280;4706;41.844;26.082;2023-06-22T10:45:57;100918.41;;;36.84;32.64
9335;BME280;4706;41.844;26.082;2023-06-22T10:48:23;100912.63;;;36.66;32.43
9335;BME280;4706;41.844;26.082;2023-06-22T10:50:48;100908.59;;;36.45;32.68
9335;BME280;4706;41.844;26.082;2023-06-22T10:53:14;100910.50;;;36.48;33.50
9335;BME280;4706;41.844;26.082;2023-06-22T10:55:39;100913.63;;;36.32;33.11
9335;BME280;4706;41.844;26.082;2023-06-22T10:58:05;100904.81;;;36.57;33.10
9335;BME280;4706;41.844;26.082;2023-06-22T11:00:30;100895.22;;;37.10;32.84
9335;BME280;4706;41.844;26.082;2023-06-22T11:02:56;100895.84;;;37.51;31.95
9335;BME280;4706;41.844;26.082;2023-06-22T11:05:21;100889.69;;;37.95;30.76
9335;BME280;4706;41.844;26.082;2023-06-22T11:07:47;100903.06;;;38.40;30.47
9335;BME280;4706;41.844;26.082;2023-06-22T11:10:14;100885.31;;;38.75;28.89
9335;BME280;4706;41.844;26.082;2023-06-22T11:12:40;100894.59;;;38.70;29.04
9335;BME280;4706;41.844;26.082;2023-06-22T11:15:07;100883.88;;;38.13;28.67
9335;BME280;4706;41.844;26.082;2023-06-22T11:17:33;100880.16;;;37.88;29.56
9335;BME280;4706;41.844;26.082;2023-06-22T11:19:59;100870.19;;;37.99;28.57
9335;BME280;4706;41.844;26.082;2023-06-22T11:22:26;100881.50;;;38.02;30.11
9335;BME280;4706;41.844;26.082;2023-06-22T11:24:52;100879.19;;;37.92;29.53
9335;BME280;4706;41.844;26.082;2023-06-22T11:27:18;100879.63;;;37.99;29.40
9335;BME280;4706;41.844;26.082;2023-06-22T11:29:43;100874.88;;;37.78;29.68
9335;BME280;4706;41.844;26.082;2023-06-22T11:32:09;100875.94;;;37.47;29.10
9335;BME280;4706;41.844;26.082;2023-06-22T11:34:34;100870.44;;;37.67;29.10
9335;BME280;4706;41.844;26.082;2023-06-22T11:37:00;100879.19;;;37.82;27.01
9335;BME280;4706;41.844;26.082;2023-06-22T11:39:26;100880.63;;;37.78;27.10
9335;BME280;4706;41.844;26.082;2023-06-22T11:41:52;100870.34;;;38.04;28.28
9335;BME280;4706;41.844;26.082;2023-06-22T11:44:18;100866.13;;;37.72;27.89
9335;BME280;4706;41.844;26.082;2023-06-22T11:46:44;100860.38;;;37.72;28.51
9335;BME280;4706;41.844;26.082;2023-06-22T11:49:09;100873.19;;;37.53;28.88
9335;BME280;4706;41.844;26.082;2023-06-22T11:51:35;100856.66;;;37.20;28.76
9335;BME280;4706;41.844;26.082;2023-06-22T11:54:00;100863.97;;;37.12;29.46
9335;BME280;4706;41.844;26.082;2023-06-22T11:56:26;100861.75;;;37.07;28.33
9335;BME280;4706;41.844;26.082;2023-06-22T11:58:53;100863.31;;;37.08;28.67
9335;BME280;4706;41.844;26.082;2023-06-22T12:01:19;100860.28;;;36.93;27.84
9335;BME280;4706;41.844;26.082;2023-06-22T12:03:45;100867.94;;;36.87;29.04
9335;BME280;4706;41.844;26.082;2023-06-22T12:06:10;100871.41;;;36.82;29.93
9335;BME280;4706;41.844;26.082;2023-06-22T12:08:36;100869.53;;;36.88;29.27
9335;BME280;4706;41.844;26.082;2023-06-22T12:11:02;100863.34;;;37.17;28.51
9335;BME280;4706;41.844;26.082;2023-06-22T12:13:27;100876.41;;;37.09;28.11
9335;BME280;4706;41.844;26.082;2023-06-22T12:15:53;100865.56;;;36.94;28.87
9335;BME280;4706;41.844;26.082;2023-06-22T12:18:19;100867.13;;;36.77;29.54
9335;BME280;4706;41.844;26.082;2023-06-22T12:20:46;100864.41;;;36.64;29.00
9335;BME280;4706;41.844;26.082;2023-06-22T12:23:12;100860.25;;;36.75;29.13
9335;BME280;4706;41.844;26.082;2023-06-22T12:25:39;100859.69;;;36.98;28.72
9335;BME280;4706;41.844;26.082;2023-06-22T12:28:04;100862.84;;;37.18;28.53
9335;BME280;4706;41.844;26.082;2023-06-22T12:30:30;100854.88;;;37.32;28.45
9335;BME280;4706;41.844;26.082;2023-06-22T12:32:56;100850.84;;;37.57;28.25
9335;BME280;4706;41.844;26.082;2023-06-22T12:35:21;100855.75;;;37.75;28.18
9335;BME280;4706;41.844;26.082;2023-06-22T12:37:47;100840.63;;;37.65;26.37
9335;BME280;4706;41.844;26.082;2023-06-22T12:40:13;100849.44;;;37.52;27.34
9335;BME280;4706;41.844;26.082;2023-06-22T12:42:39;100839.72;;;37.50;28.55
9335;BME280;4706;41.844;26.082;2023-06-22T12:45:05;100838.63;;;37.19;27.30
9335;BME280;4706;41.844;26.082;2023-06-22T12:47:31;100847.88;;;36.96;27.74
9335;BME280;4706;41.844;26.082;2023-06-22T12:49:57;100842.41;;;36.70;27.53
9335;BME280;4706;41.844;26.082;2023-06-22T12:52:22;100835.88;;;36.52;28.82
9335;BME280;4706;41.844;26.082;2023-06-22T12:54:48;100842.03;;;36.41;30.14
9335;BME280;4706;41.844;26.082;2023-06-22T12:57:14;100838.38;;;36.40;29.15
9335;BME280;4706;41.844;26.082;2023-06-22T12:59:40;100843.44;;;36.27;29.08
9335;BME280;4706;41.844;26.082;2023-06-22T13:02:05;100853.19;;;35.98;29.31
9335;BME280;4706;41.844;26.082;2023-06-22T13:04:31;100841.84;;;35.95;30.33